sensor_id;sensor_type;location;lat;lon;timestamp;pressure;altitude;pressure_sealevel;temperature;humidity
45941;BME280;31858;46.008;8.978;2023-09-19T00:09:14;94469.84;;;16.13;100.00
45941;BME280;31858;46.008;8.978;2023-09-19T00:19:17;94433.66;;;15.94;100.00
45941;BME280;31858;46.008;8.978;2023-09-19T00:29:19;94437.81;;;15.99;100.00
45941;BME280;31858;46.008;8.978;2023-09-19T00:39:22;94460.84;;;16.00;100.00
45941;BME280;31858;46.008;8.978;2023-09-19T00:49:25;94435.63;;;16.17;100.00
45941;BME280;31858;46.008;8.978;2023-09-19T00:59:29;94438.19;;;16.01;100.00
45941;BME280;31858;46.008;8.978;2023-09-19T01:09:33;94429.41;;;15.97;100.00
45941;BME280;31858;46.008;8.978;2023-09-19T01:20:03;94445.69;;;15.86;100.00
45941;BME280;31858;46.008;8.978;2023-09-19T01:30:13;94461.50;;;15.81;100.00
45941;BME280;31858;46.008;8.978;2023-09-19T01:40:18;94463.47;;;15.77;100.00
45941;BME280;31858;46.008;8.978;2023-09-19T01:50:27;94464.66;;;15.76;100.00
45941;BME280;31858;46.008;8.978;2023-09-19T02:00:32;94443.41;;;15.85;100.00
45941;BME280;31858;46.008;8.978;2023-09-19T02:10:36;94450.81;;;15.77;100.00
45941;BME280;31858;46.008;8.978;2023-09-19T02:20:38;94451.94;;;15.80;100.00
45941;BME280;31858;46.008;8.978;2023-09-19T02:30:41;94443.25;;;15.69;100.00
45941;BME280;31858;46.008;8.978;2023-09-19T02:40:43;94442.34;;;15.52;100.00
45941;BME280;31858;46.008;8.978;2023-09-19T02:50:46;94417.63;;;15.64;100.00
45941;BME280;31858;46.008;8.978;2023-09-19T03:00:47;94406.88;;;15.64;100.00
45941;BME280;31858;46.008;8.978;2023-09-19T03:10:52;94413.78;;;15.65;100.00
45941;BME280;31858;46.008;8.978;2023-09-19T03:20:54;94408.44;;;15.61;100.00
45941;BME280;31858;46.008;8.978;2023-09-19T03:31:01;94415.59;;;15.45;100.00
45941;BME280;31858;46.008;8.978;2023-09-19T03:41:03;94430.13;;;15.47;100.00
45941;BME280;31858;46.008;8.978;2023-09-19T03:51:06;94421.66;;;15.49;100.00
45941;BME280;31858;46.008;8.978;2023-09-19T04:01:08;94428.78;;;15.32;100.00
45941;BME280;31858;46.008;8.978;2023-09-19T04:11:11;94438.06;;;15.27;100.00
45941;BME280;31858;46.008;8.978;2023-09-19T04:21:12;94420.16;;;15.17;100.00
45941;BME280;31858;46.008;8.978;2023-09-19T04:31:15;94403.66;;;15.19;100.00
45941;BME280;31858;46.008;8.978;2023-09-19T04:41:18;94393.72;;;15.16;100.00
45941;BME280;31858;46.008;8.978;2023-09-19T04:51:21;94413.75;;;15.08;100.00
45941;BME280;31858;46.008;8.978;2023-09-19T05:01:23;94425.31;;;15.05;100.00
45941;BME280;31858;46.008;8.978;2023-09-19T05:11:27;94458.31;;;15.01;100.00
45941;BME280;31858;46.008;8.978;2023-09-19T05:21:30;94458.25;;;15.05;100.00
45941;BME280;31858;46.008;8.978;2023-09-19T05:31:35;94451.44;;;14.97;100.00
45941;BME280;31858;46.008;8.978;2023-09-19T05:41:41;94463.59;;;15.09;100.00
45941;BME280;31858;46.008;8.978;2023-09-19T05:51:44;94480.94;;;15.00;100.00
45941;BME280;31858;46.008;8.978;2023-09-19T06:01:46;94481.38;;;14.95;100.00
45941;BME280;31858;46.008;8.978;2023-09-19T06:11:49;94471.84;;;15.25;100.00
45941;BME280;31858;46.008;8.978;2023-09-19T06:21:52;94483.19;;;15.36;100.00
45941;BME280;31858;46.008;8.978;2023-09-19T06:31:55;94489.50;;;15.22;100.00
45941;BME280;31858;46.008;8.978;2023-09-19T06:41:57;94487.94;;;15.25;100.00
45941;BME280;31858;46.008;8.978;2023-09-19T06:52:02;94495.00;;;15.12;100.00
45941;BME280;31858;46.008;8.978;2023-09-19T07:02:04;94504.03;;;15.25;100.00
45941;BME280;31858;46.008;8.978;2023-09-19T07:12:08;94522.91;;;15.18;100.00
45941;BME280;31858;46.008;8.978;2023-09-19T07:22:09;94532.38;;;15.29;100.00
45941;BME280;31858;46.008;8.978;2023-09-19T07:32:12;94539.06;;;15.48;100.00
45941;BME280;31858;46.008;8.978;2023-09-19T07:42:14;94507.38;;;15.66;100.00
45941;BME280;31858;46.008;8.978;2023-09-19T07:52:19;94518.09;;;15.66;100.00
45941;BME280;31858;46.008;8.978;2023-09-19T08:02:22;94544.25;;;15.62;100.00
45941;BME280;31858;46.008;8.978;2023-09-19T08:12:25;94552.66;;;15.64;100.00
45941;BME280;31858;46.008;8.978;2023-09-19T08:22:27;94567.25;;;15.63;100.00
45941;BME280;31858;46.008;8.978;2023-09-19T08:32:30;94584.31;;;15.80;100.00
45941;BME280;31858;46.008;8.978;2023-09-19T08:42:31;94582.34;;;15.84;100.00
45941;BME280;31858;46.008;8.978;2023-09-19T08:52:42;94569.59;;;16.19;100.00
45941;BME280;31858;46.008;8.978;2023-09-19T09:02:44;94584.88;;;16.25;100.00
45941;BME280;31858;46.008;8.978;2023-09-19T09:12:51;94582.34;;;16.42;100.00
45941;BME280;31858;46.008;8.978;2023-09-19T09:22:55;94584.88;;;16.52;100.00
45941;BME280;31858;46.008;8.978;2023-09-19T09:33:11;94598.38;;;16.76;100.00
45941;BME280;31858;46.008;8.978;2023-09-19T09:43:25;94591.81;;;16.77;100.00
45941;BME280;31858;46.008;8.978;2023-09-19T09:53:30;94593.06;;;17.15;100.00
45941;BME280;31858;46.008;8.978;2023-09-19T10:03:33;94592.25;;;17.18;100.00
45941;BME280;31858;46.008;8.978;2023-09-19T10:13:41;94573.22;;;17.29;100.00
45941;BME280;31858;46.008;8.978;2023-09-19T10:23:44;94573.72;;;17.64;100.00
45941;BME280;31858;46.008;8.978;2023-09-19T10:33:49;94580.56;;;17.88;100.00
45941;BME280;31858;46.008;8.978;2023-09-19T10:43:52;94560.38;;;17.96;100.00
45941;BME280;31858;46.008;8.978;2023-09-19T10:54:02;94542.03;;;18.23;100.00
45941;BME280;31858;46.008;8.978;2023-09-19T11:04:22;94534.81;;;18.53;100.00
45941;BME280;31858;46.008;8.978;2023-09-19T11:14:42;94448.97;;;18.48;100.00
45941;BME280;31858;46.008;8.978;2023-09-19T11:24:45;94444.69;;;18.67;100.00
45941;BME280;31858;46.008;8.978;2023-09-19T11:34:48;94455.78;;;18.85;100.00
45941;BME280;31858;46.008;8.978;2023-09-19T11:44:51;94456.69;;;18.95;100.00
45941;BME280;31858;46.008;8.978;2023-09-19T11:54:57;94450.97;;;19.34;100.00
45941;BME280;31858;46.008;8.978;2023-09-19T12:05:03;94411.84;;;19.39;100.00
45941;BME280;31858;46.008;8.978;2023-09-19T12:15:08;94417.50;;;19.57;100.00
45941;BME280;31858;46.008;8.978;2023-09-19T12:25:11;94411.75;;;19.93;100.00
45941;BME280;31858;46.008;8.978;2023-09-19T12:35:28;94405.78;;;20.24;100.00
45941;BME280;31858;46.008;8.978;2023-09-19T12:45:30;94400.47;;;20.33;100.00
45941;BME280;31858;46.008;8.978;2023-09-19T12:55:35;94396.44;;;20.50;100.00
45941;BME280;31858;46.008;8.978;2023-09-19T13:05:52;94392.94;;;20.62;100.00
45941;BME280;31858;46.008;8.978;2023-09-19T13:15:55;94389.44;;;20.83;100.00
45941;BME280;31858;46.008;8.978;2023-09-19T13:25:58;94376.41;;;20.91;100.00
45941;BME280;31858;46.008;8.978;2023-09-19T13:36:01;94366.63;;;21.15;100.00
45941;BME280;31858;46.008;8.978;2023-09-19T13:46:03;94368.19;;;21.47;100.00
45941;BME280;31858;46.008;8.978;2023-09-19T13:56:06;94353.78;;;21.60;100.00
45941;BME280;31858;46.008;8.978;2023-09-19T14:06:08;94361.72;;;21.94;100.00
45941;BME280;31858;46.008;8.978;2023-09-19T14:16:12;94366.16;;;22.28;100.00
45941;BME280;31858;46.008;8.978;2023-09-19T14:26:14;94352.47;;;22.32;100.00
45941;BME280;31858;46.008;8.978;2023-09-19T14:36:17;94352.63;;;22.56;100.00
45941;BME280;31858;46.008;8.978;2023-09-19T14:46:19;94356.69;;;22.60;100.00
45941;BME280;31858;46.008;8.978;2023-09-19T14:56:22;94354.59;;;22.64;100.00
45941;BME280;31858;46.008;8.978;2023-09-19T15:06:25;94357.47;;;22.79;100.00
45941;BME280;31858;46.008;8.978;2023-09-19T15:16:28;94360.50;;;22.81;100.00
45941;BME280;31858;46.008;8.978;2023-09-19T15:26:30;94358.22;;;22.80;100.00
45941;BME280;31858;46.008;8.978;2023-09-19T15:36:33;94374.19;;;22.77;100.00
45941;BME280;31858;46.008;8.978;2023-09-19T15:46:35;94381.59;;;22.86;100.00
45941;BME280;31858;46.008;8.978;2023-09-19T15:56:38;94387.34;;;22.88;100.00
45941;BME280;31858;46.008;8.978;2023-09-19T16:06:41;94381.16;;;22.88;100.00
45941;BME280;31858;46.008;8.978;2023-09-19T16:16:44;94390.38;;;22.81;100.00
45941;BME280;31858;46.008;8.978;2023-09-19T16:26:46;94396.81;;;22.74;100.00
45941;BME280;31858;46.008;8.978;2023-09-19T16:36:49;94401.34;;;22.59;100.00
45941;BME280;31858;46.008;8.978;2023-09-19T16:46:51;94415.66;;;22.51;100.00
45941;BME280;31858;46.008;8.978;2023-09-19T16:56:54;94433.28;;;22.37;100.00
45941;BME280;31858;46.008;8.978;2023-09-19T17:06:56;94442.66;;;21.96;100.00
45941;BME280;31858;46.008;8.978;2023-09-19T17:16:59;94442.31;;;21.85;100.00
45941;BME280;31858;46.008;8.978;2023-09-19T17:27:00;94450.81;;;20.99;100.00
45941;BME280;31858;46.008;8.978;2023-09-19T17:37:03;94469.81;;;20.52;100.00
45941;BME280;31858;46.008;8.978;2023-09-19T17:47:05;94467.16;;;20.39;100.00
45941;BME280;31858;46.008;8.978;2023-09-19T17:57:08;94486.06;;;20.14;100.00
45941;BME280;31858;46.008;8.978;2023-09-19T18:07:10;94494.19;;;19.88;100.00
45941;BME280;31858;46.008;8.978;2023-09-19T18:17:13;94508.31;;;19.67;100.00
45941;BME280;31858;46.008;8.978;2023-09-19T18:27:15;94521.25;;;19.47;100.00
45941;BME280;31858;46.008;8.978;2023-09-19T18:37:18;94521.63;;;19.33;100.00
45941;BME280;31858;46.008;8.978;2023-09-19T18:47:20;94525.28;;;19.26;100.00
45941;BME280;31858;46.008;8.978;2023-09-19T18:57:25;94541.34;;;19.17;100.00
45941;BME280;31858;46.008;8.978;2023-09-19T19:07:26;94550.63;;;19.16;100.00
45941;BME280;31858;46.008;8.978;2023-09-19T19:17:32;94554.78;;;19.04;100.00
45941;BME280;31858;46.008;8.978;2023-09-19T19:27:34;94555.63;;;19.01;100.00
45941;BME280;31858;46.008;8.978;2023-09-19T19:37:37;94552.69;;;18.96;100.00
45941;BME280;31858;46.008;8.978;2023-09-19T19:47:39;94556.75;;;18.87;100.00
45941;BME280;31858;46.008;8.978;2023-09-19T19:57:42;94562.75;;;18.79;100.00
45941;BME280;31858;46.008;8.978;2023-09-19T20:07:44;94569.50;;;18.71;100.00
45941;BME280;31858;46.008;8.978;2023-09-19T20:17:47;94576.16;;;18.66;100.00
45941;BME280;31858;46.008;8.978;2023-09-19T20:27:50;94577.84;;;18.76;100.00
45941;BME280;31858;46.008;8.978;2023-09-19T20:37:53;94582.72;;;18.65;100.00
45941;BME280;31858;46.008;8.978;2023-09-19T20:48:00;94587.25;;;18.52;100.00
45941;BME280;31858;46.008;8.978;2023-09-19T20:58:03;94593.97;;;18.44;100.00
45941;BME280;31858;46.008;8.978;2023-09-19T21:08:05;94607.97;;;18.39;100.00
45941;BME280;31858;46.008;8.978;2023-09-19T21:18:08;94609.56;;;18.36;100.00
45941;BME280;31858;46.008;8.978;2023-09-19T21:28:10;94609.56;;;18.36;100.00
45941;BME280;31858;46.008;8.978;2023-09-19T21:38:14;94610.63;;;18.22;100.00
45941;BME280;31858;46.008;8.978;2023-09-19T21:48:15;94614.97;;;18.20;100.00
45941;BME280;31858;46.008;8.978;2023-09-19T21:58:19;94627.13;;;18.08;100.00
45941;BME280;31858;46.008;8.978;2023-09-19T22:08:21;94629.00;;;18.11;100.00
45941;BME280;31858;46.008;8.978;2023-09-19T22:18:24;94631.50;;;18.02;100.00
45941;BME280;31858;46.008;8.978;2023-09-19T22:28:25;94633.09;;;18.00;100.00
45941;BME280;31858;46.008;8.978;2023-09-19T22:38:30;94649.06;;;17.90;100.00
45941;BME280;31858;46.008;8.978;2023-09-19T22:48:33;94654.88;;;17.89;100.00
45941;BME280;31858;46.008;8.978;2023-09-19T22:58:37;94653.28;;;17.91;100.00
45941;BME280;31858;46.008;8.978;2023-09-19T23:08:39;94651.19;;;17.99;100.00
45941;BME280;31858;46.008;8.978;2023-09-19T23:18:42;94655.91;;;17.95;100.00
45941;BME280;31858;46.008;8.978;2023-09-19T23:28:45;94653.13;;;17.79;100.00
45941;BME280;31858;46.008;8.978;2023-09-19T23:38:49;94651.19;;;17.79;100.00
45941;BME280;31858;46.008;8.978;2023-09-19T23:48:51;94651.69;;;17.74;100.00
45941;BME280;31858;46.008;8.978;2023-09-19T23:58:55;94649.75;;;17.75;100.00
